ADDS METAR Data

Data at: 2206 UTC 14 Aug 2018

METAR for:EGLF (Farnborough Arpt, --, UK)
Text:EGLF 141920Z 27008KT 250V320 9999 FEW033 21/14 Q1017
Temperature: 21.0°C ( 70°F)
Dewpoint: 14.0°C ( 57°F) [RH = 64%]
Pressure (altimeter):30.03 inches Hg (1017.0 mb)
Winds:from the W (270 degrees) at 9 MPH (8 knots; 4.1 m/s)
Visibility:6 or more sm (10+ km)
Ceiling:at least 12,000 feet AGL
Clouds: few clouds at 3300 feet AGL

TAF for:EGLF (Farnborough Arpt, --, UK) issued at 1658 UTC 14 Aug 2018
Text:TAF EGLF 141658Z 1418/1421 26010KT 9999 SCT040
Forecast period:1800 to 2100 UTC 14 August 2018
Forecast type:FROM: standard forecast or significant change
Winds:from the W (260 degrees) at 12 MPH (10 knots; 5.1 m/s)
Visibility:6 or more sm (10+ km)
Ceiling:at least 12,000 feet AGL
Clouds: scattered clouds at 4000 feet AGL

METAR for:EGUB (Benson(RAF), --, UK)
Text:EGUB 142150Z 23003KT 9999 FEW025 16/13 Q1018 BLU NOSIG
Temperature: 16.0°C ( 61°F)
Dewpoint: 13.0°C ( 55°F) [RH = 82%]
Pressure (altimeter):30.06 inches Hg (1018.0 mb)
Winds:from the SW (230 degrees) at 3 MPH (3 knots; 1.5 m/s)
Visibility:6 or more sm (10+ km)
Ceiling:at least 12,000 feet AGL
Clouds: few clouds at 2500 feet AGL

TAF for:EGUB (Benson(RAF), --, UK) issued at 1923 UTC 14 Aug 2018
Text:TAF EGUB 141923Z 1421/1501 26008KT 9999 FEW025
Forecast period:2100 to 2300 UTC 14 August 2018
Forecast type:FROM: standard forecast or significant change
Winds:from the W (260 degrees) at 9 MPH (8 knots; 4.1 m/s)
Visibility:6 or more sm (10+ km)
Ceiling:at least 12,000 feet AGL
Clouds: few clouds at 2500 feet AGL
Text:PROB40
Forecast period:2100 to 2300 UTC 14 August 2018
Forecast type:TEMPORARY: The following changes expected for less than half the time period
Ceiling:at least 12,000 feet AGL
Clouds: scattered clouds at 1800 feet AGL
Text:TEMPO 1421/1423 SCT018
Forecast period:2300 UTC 14 August 2018 to 0100 UTC 15 August 2018
Forecast type:BECOMING: Conditions expected to become as follows by 0100 UTC 15 August 2018
Winds:from the W (260 degrees) at 9 MPH (8 knots; 4.1 m/s)
Visibility:6 or more sm (10+ km)
Ceiling:1500 feet AGL
Clouds: broken clouds at 1500 feet AGL

METAR for:EGVO (Odiham(RAF), --, UK)
Text:EGVO 142150Z 27007KT 9999 FEW025 16/12 Q1018 BLU BECMG BKN020 WHT
Temperature: 16.0°C ( 61°F)
Dewpoint: 12.0°C ( 54°F) [RH = 77%]
Pressure (altimeter):30.06 inches Hg (1018.0 mb)
Winds:from the W (270 degrees) at 8 MPH (7 knots; 3.6 m/s)
Visibility:6 or more sm (10+ km)
Ceiling:at least 12,000 feet AGL
Clouds: few clouds at 2500 feet AGL

TAF for:EGVO (Odiham(RAF), --, UK) issued at 1946 UTC 14 Aug 2018
Text:TAF EGVO 141946Z 1421/1509 29008KT 9999 BKN025
Forecast period:2100 UTC 14 August 2018 to 0900 UTC 15 August 2018
Forecast type:FROM: standard forecast or significant change
Winds:from the WNW (290 degrees) at 9 MPH (8 knots; 4.1 m/s)
Visibility:6 or more sm (10+ km)
Ceiling:2500 feet AGL
Clouds: broken clouds at 2500 feet AGL
Text:BECMG 1421/1424 BKN018
Forecast period:2100 UTC 14 August 2018 to 0900 UTC 15 August 2018
Forecast type:BECOMING: Conditions expected to become as follows by 0000 UTC 15 August 2018
Winds:from the WNW (290 degrees) at 9 MPH (8 knots; 4.1 m/s)
Visibility:6 or more sm (10+ km)
Ceiling:1800 feet AGL
Clouds: broken clouds at 1800 feet AGL
Text:TEMPO 1500/1509 SCT012
Forecast period:0000 to 0900 UTC 15 August 2018
Forecast type:TEMPORARY: The following changes expected for less than half the time period
Ceiling:at least 12,000 feet AGL
Clouds: scattered clouds at 1200 feet AGL

METAR for:EGTK (Oxford Arpt, --, UK)
Text:EGTK 142120Z 25008KT CAVOK 16/13 Q1017
Temperature: 16.0°C ( 61°F)
Dewpoint: 13.0°C ( 55°F) [RH = 82%]
Pressure (altimeter):30.03 inches Hg (1017.0 mb)
Winds:from the WSW (250 degrees) at 9 MPH (8 knots; 4.1 m/s)
Visibility:6 or more sm (10+ km)
Ceiling:ceiling and visibility are OK
Clouds:unknown

TAF for:EGTK (Oxford Arpt, --, UK) issued at 1658 UTC 14 Aug 2018
Text:TAF EGTK 141658Z 1418/1422 26010KT 9999 SCT035
Forecast period:1800 to 2200 UTC 14 August 2018
Forecast type:FROM: standard forecast or significant change
Winds:from the W (260 degrees) at 12 MPH (10 knots; 5.1 m/s)
Visibility:6 or more sm (10+ km)
Ceiling:at least 12,000 feet AGL
Clouds: scattered clouds at 3500 feet AGL

METAR for:EGHH (Bournemouth Intl, --, UK)
Text:EGHH 142150Z 28003KT 9999 BKN027 16/15 Q1019
Temperature: 16.0°C ( 61°F)
Dewpoint: 15.0°C ( 59°F) [RH = 94%]
Pressure (altimeter):30.09 inches Hg (1019.0 mb)
Winds:from the W (280 degrees) at 3 MPH (3 knots; 1.5 m/s)
Visibility:6 or more sm (10+ km)
Ceiling:2700 feet AGL
Clouds: broken clouds at 2700 feet AGL

TAF for:EGHH (Bournemouth Intl, --, UK) issued at 1953 UTC 14 Aug 2018
Text:TAF EGHH 141953Z 1421/1506 27009KT 9999 SCT025
Forecast period:2100 UTC 14 August 2018 to 0600 UTC 15 August 2018
Forecast type:FROM: standard forecast or significant change
Winds:from the W (270 degrees) at 10 MPH (9 knots; 4.6 m/s)
Visibility:6 or more sm (10+ km)
Ceiling:at least 12,000 feet AGL
Clouds: scattered clouds at 2500 feet AGL
Text:PROB30 1421/1506 BKN012
Forecast period:2100 UTC 14 August 2018 to 0600 UTC 15 August 2018
Forecast type:PROBABLE: 30 percent likelihood of the following during this time
Ceiling:1200 feet AGL
Clouds: broken clouds at 1200 feet AGL

METAR for:
Text:No data found

TAF for:
Text:No data found